Time;durP1;ratioP1;P1;durP2;ratioP2;P2;SDS_P1;SDS_P2;PMS_P1;PMS_P2;Temp;Humidity;BMP_temperature;BMP_pressure;BME280_temperature;BME280_humidity;BME280_pressure;Samples;Min_cycle;Max_cycle;Signal;HPM_P1;HPM_P2
2023/05/23 00:01:01;;;;;;;18.13;14.18;;;;;;;16.30;100.00;100622.63;4928608;29;20044;-82
2023/05/23 00:03:30;;;;;;;17.73;15.70;;;;;;;16.33;100.00;100622.50;4917138;29;20047;-83
2023/05/23 00:05:57;;;;;;;16.83;14.90;;;;;;;16.34;100.00;100618.97;4919893;29;20138;-82
2023/05/23 00:08:24;;;;;;;16.27;13.30;;;;;;;16.36;100.00;100622.44;4917264;29;20051;-80
2023/05/23 00:10:51;;;;;;;19.60;14.00;;;;;;;16.35;100.00;100623.34;4909942;29;20637;-80
2023/05/23 00:13:17;;;;;;;17.27;13.73;;;;;;;16.31;100.00;100618.19;4911562;29;20114;-82
2023/05/23 00:15:45;;;;;;;14.32;12.93;;;;;;;16.31;100.00;100619.06;4918938;29;20051;-81
2023/05/23 00:18:12;;;;;;;14.50;12.98;;;;;;;16.31;100.00;100618.19;4912103;29;20045;-83
2023/05/23 00:20:41;;;;;;;14.55;12.73;;;;;;;16.33;100.00;100621.66;4927412;29;20064;-80
2023/05/23 00:23:08;;;;;;;16.98;14.13;;;;;;;16.32;100.00;100615.53;4905664;29;20142;-81
2023/05/23 00:25:36;;;;;;;15.27;13.52;;;;;;;16.34;100.00;100621.59;4922785;29;20047;-82
2023/05/23 00:28:05;;;;;;;19.42;14.93;;;;;;;16.31;100.00;100611.16;4918444;29;20480;-80
2023/05/23 00:30:33;;;;;;;18.65;15.18;;;;;;;16.29;100.00;100610.34;4929878;29;20054;-81
2023/05/23 00:32:59;;;;;;;23.50;18.63;;;;;;;16.27;100.00;100612.19;4916110;29;20411;-80
2023/05/23 00:35:27;;;;;;;27.23;19.05;;;;;;;16.25;100.00;100614.00;4918677;29;20086;-80
2023/05/23 00:37:54;;;;;;;24.25;19.67;;;;;;;16.26;100.00;100622.81;4918284;29;20048;-80
2023/05/23 00:40:22;;;;;;;29.20;21.98;;;;;;;16.29;100.00;100617.41;4918337;29;20094;-82
2023/05/23 00:42:49;;;;;;;33.38;23.00;;;;;;;16.24;100.00;100620.19;4899344;29;20052;-82
2023/05/23 00:45:15;;;;;;;33.60;25.85;;;;;;;16.21;100.00;100618.50;4914481;29;20058;-81
2023/05/23 00:47:42;;;;;;;34.60;25.67;;;;;;;16.17;100.00;100616.88;4916204;29;20479;-87
2023/05/23 00:50:13;;;;;;;38.25;27.92;;;;;;;16.13;100.00;100620.53;4920007;29;20050;-82
2023/05/23 00:52:40;;;;;;;38.72;28.25;;;;;;;16.16;100.00;100620.44;4917577;29;20051;-82
2023/05/23 00:55:08;;;;;;;45.10;32.13;;;;;;;16.12;100.00;100624.09;4920103;29;20043;-84
2023/05/23 00:57:39;;;;;;;42.92;33.35;;;;;;;16.04;100.00;100626.97;4917110;29;20043;-82
2023/05/23 01:00:09;;;;;;;42.97;33.70;;;;;;;16.00;100.00;100613.94;4898920;29;20052;-87
2023/05/23 01:02:46;;;;;;;44.20;32.63;;;;;;;15.96;100.00;100615.81;4919755;29;20120;-82
2023/05/23 01:05:16;;;;;;;44.28;33.28;;;;;;;15.92;100.00;100622.09;4917158;29;20161;-81
2023/05/23 01:07:46;;;;;;;44.70;33.47;;;;;;;15.88;100.00;100623.13;4933928;29;20036;-81
2023/05/23 01:10:26;;;;;;;41.72;34.53;;;;;;;15.84;100.00;100618.84;4914645;29;20042;-82
2023/05/23 01:13:13;;;;;;;41.17;32.97;;;;;;;15.70;100.00;100637.72;4914890;29;20721;-80
2023/05/23 01:16:07;;;;;;;41.88;31.83;;;;;;;15.67;100.00;100636.03;4927578;29;20479;-80
2023/05/23 01:18:49;;;;;;;46.58;35.45;;;;;;;15.48;100.00;100633.06;4911001;29;20051;-81
2023/05/23 01:21:20;;;;;;;40.97;30.33;;;;;;;15.46;100.00;100636.66;4895365;29;20443;-81
2023/05/23 01:24:20;;;;;;;49.47;32.92;;;;;;;15.35;100.00;100635.19;4933400;29;20585;-85
2023/05/23 01:27:08;;;;;;;43.50;29.40;;;;;;;15.26;100.00;100642.53;4917337;29;20038;-85
2023/05/23 01:29:42;;;;;;;35.40;27.73;;;;;;;15.18;100.00;100638.31;4910133;29;20044;-82
2023/05/23 01:32:12;;;;;;;35.65;28.20;;;;;;;15.16;100.00;100644.56;4911256;29;20116;-83
2023/05/23 01:34:40;;;;;;;40.33;28.15;;;;;;;15.15;100.00;100642.84;4903714;29;20040;-85
2023/05/23 01:37:13;;;;;;;39.80;28.52;;;;;;;15.09;100.00;100649.13;4913174;29;20051;-84
2023/05/23 01:39:39;;;;;;;34.95;26.00;;;;;;;15.05;100.00;100642.22;4923951;29;20542;-83
2023/05/23 01:42:07;;;;;;;29.85;24.25;;;;;;;14.88;100.00;100651.44;4908581;29;20066;-81
2023/05/23 01:44:46;;;;;;;31.92;23.35;;;;;;;14.80;100.00;100650.78;4930351;29;20063;-82
2023/05/23 01:47:14;;;;;;;28.20;21.95;;;;;;;14.81;100.00;100649.91;4916860;29;20047;-80
2023/05/23 01:49:43;;;;;;;31.25;23.70;;;;;;;14.82;100.00;100651.63;4914211;29;20043;-80
2023/05/23 01:52:10;;;;;;;29.63;22.55;;;;;;;14.76;100.00;100662.31;4919279;29;20122;-81
2023/05/23 01:54:41;;;;;;;24.27;20.48;;;;;;;14.70;100.00;100657.22;4915080;29;20032;-81
2023/05/23 01:57:07;;;;;;;26.10;20.10;;;;;;;14.67;100.00;100660.78;4917498;29;20102;-84
2023/05/23 01:59:34;;;;;;;25.92;19.10;;;;;;;14.71;100.00;100657.16;4919935;29;20051;-81
2023/05/23 02:02:00;;;;;;;20.63;18.33;;;;;;;14.70;100.00;100665.13;4912908;29;20054;-81
2023/05/23 02:04:28;;;;;;;24.40;20.00;;;;;;;14.70;100.00;100658.06;4914637;29;20054;-80
2023/05/23 02:06:54;;;;;;;28.05;20.70;;;;;;;14.67;100.00;100658.16;4922829;29;20066;-81
2023/05/23 02:09:21;;;;;;;21.13;17.65;;;;;;;14.60;100.00;100664.47;4918729;29;20043;-80
2023/05/23 02:11:48;;;;;;;19.75;17.25;;;;;;;14.57;100.00;100664.53;4914899;29;20039;-81
2023/05/23 02:14:14;;;;;;;21.52;16.38;;;;;;;14.50;100.00;100662.97;4917158;29;20052;-82
2023/05/23 02:16:41;;;;;;;20.63;17.23;;;;;;;14.42;100.00;100664.91;4930536;29;20039;-82
2023/05/23 02:19:08;;;;;;;23.10;16.27;;;;;;;14.29;100.00;100659.06;4916642;29;20054;-81
2023/05/23 02:21:34;;;;;;;19.92;16.33;;;;;;;14.12;100.00;100667.38;4917716;29;20580;-81
2023/05/23 02:24:00;;;;;;;20.75;16.13;;;;;;;14.01;100.00;100665.84;4918615;29;20099;-82
2023/05/23 02:26:27;;;;;;;19.38;16.00;;;;;;;13.93;100.00;100664.31;4924777;29;20054;-82
2023/05/23 02:28:53;;;;;;;19.88;16.00;;;;;;;13.84;100.00;100668.03;4919333;29;20054;-81
2023/05/23 02:31:20;;;;;;;17.80;14.25;;;;;;;13.73;100.00;100669.13;4913921;29;20048;-81
2023/05/23 02:33:46;;;;;;;16.55;14.18;;;;;;;13.67;100.00;100677.13;4901046;29;20127;-81
2023/05/23 02:36:13;;;;;;;18.45;15.65;;;;;;;13.66;100.00;100675.44;4911870;29;20066;-83
2023/05/23 02:38:40;;;;;;;18.50;13.55;;;;;;;13.72;100.00;100684.94;4917312;29;20043;-81
2023/05/23 02:41:06;;;;;;;17.92;14.45;;;;;;;13.76;100.00;100681.34;4917691;29;20051;-81
2023/05/23 02:43:33;;;;;;;21.10;14.65;;;;;;;13.81;100.00;100689.16;4915971;29;20051;-84
2023/05/23 02:45:59;;;;;;;16.80;14.13;;;;;;;13.84;100.00;100691.69;4916013;29;20122;-87
2023/05/23 02:48:26;;;;;;;18.75;13.75;;;;;;;13.83;100.00;100688.22;4913665;29;20054;-82
2023/05/23 02:50:52;;;;;;;16.90;13.75;;;;;;;13.80;100.00;100682.16;4914170;29;20052;-80
2023/05/23 02:53:19;;;;;;;16.05;14.20;;;;;;;13.80;100.00;100685.63;4919675;29;20039;-81
2023/05/23 02:55:45;;;;;;;15.27;12.25;;;;;;;13.79;100.00;100683.03;4917951;29;20535;-81
2023/05/23 02:58:11;;;;;;;16.05;13.55;;;;;;;13.69;100.00;100691.13;4916486;29;20058;-80
2023/05/23 03:00:41;;;;;;;16.80;14.10;;;;;;;13.63;100.00;100685.13;4900478;29;20102;-82
2023/05/23 03:03:08;;;;;;;15.70;13.95;;;;;;;13.58;100.00;100682.59;4909122;29;20044;-82
2023/05/23 03:05:35;;;;;;;20.52;16.20;;;;;;;13.54;100.00;100689.69;4930544;29;20076;-82
2023/05/23 03:08:01;;;;;;;18.88;15.18;;;;;;;13.44;100.00;100688.16;4915368;29;20050;-82
2023/05/23 03:10:28;;;;;;;21.13;15.25;;;;;;;13.43;100.00;100682.91;4919295;29;20482;-83
2023/05/23 03:12:54;;;;;;;19.48;15.15;;;;;;;13.48;100.00;100688.94;4898877;29;20095;-88
2023/05/23 03:15:21;;;;;;;22.52;17.67;;;;;;;13.57;100.00;100694.00;4915381;29;20052;-80
2023/05/23 03:17:47;;;;;;;23.65;16.55;;;;;;;13.64;100.00;100685.09;4933316;29;20055;-80
2023/05/23 03:20:14;;;;;;;24.80;17.17;;;;;;;13.69;100.00;100679.75;4927756;29;20052;-80
2023/05/23 03:22:42;;;;;;;20.02;16.05;;;;;;;13.78;100.00;100683.94;4912695;29;20048;-81
2023/05/23 03:25:10;;;;;;;28.98;19.00;;;;;;;13.83;100.00;100676.81;4917698;29;20127;-81
2023/05/23 03:27:36;;;;;;;18.50;15.93;;;;;;;13.89;100.00;100680.16;4915718;29;20043;-81
2023/05/23 03:30:07;;;;;;;24.17;18.65;;;;;;;13.92;100.00;100670.47;4918378;29;20688;-84
2023/05/23 03:32:33;;;;;;;23.42;18.65;;;;;;;13.86;100.00;100669.72;4914906;29;20043;-81
2023/05/23 03:35:01;;;;;;;22.95;18.17;;;;;;;13.86;100.00;100671.50;4910960;29;20545;-89
2023/05/23 03:37:27;;;;;;;26.38;18.05;;;;;;;13.83;100.00;100663.66;4912282;29;20364;-83
2023/05/23 03:39:56;;;;;;;23.65;18.15;;;;;;;13.82;100.00;100668.06;4915942;29;20448;-82
2023/05/23 03:42:23;;;;;;;24.77;18.27;;;;;;;13.72;100.00;100667.38;4916777;29;20105;-80
2023/05/23 03:44:49;;;;;;;23.55;18.33;;;;;;;13.69;100.00;100664.81;4917507;29;20065;-82
2023/05/23 03:47:15;;;;;;;25.08;17.98;;;;;;;13.68;100.00;100670.13;4916460;29;20047;-80
2023/05/23 03:49:43;;;;;;;22.02;16.58;;;;;;;13.67;100.00;100673.66;4917203;29;20086;-82
2023/05/23 03:52:10;;;;;;;22.52;17.63;;;;;;;13.71;100.00;100664.78;4917073;29;20475;-81
2023/05/23 03:54:37;;;;;;;21.30;17.48;;;;;;;13.75;100.00;100671.72;4919865;29;20074;-83
2023/05/23 03:57:03;;;;;;;22.60;18.25;;;;;;;13.77;100.00;100666.44;4928893;29;20044;-79
2023/05/23 03:59:30;;;;;;;22.38;16.75;;;;;;;13.78;100.00;100668.16;4917939;29;20047;-80
2023/05/23 04:01:58;;;;;;;18.67;15.32;;;;;;;13.78;100.00;100661.13;4914968;29;20043;-82
2023/05/23 04:04:25;;;;;;;18.65;15.32;;;;;;;13.83;100.00;100664.53;4916043;29;20055;-80
2023/05/23 04:06:51;;;;;;;21.67;16.08;;;;;;;13.81;100.00;100660.19;4916413;29;20118;-83
2023/05/23 04:09:18;;;;;;;18.67;14.73;;;;;;;13.80;100.00;100675.09;4915375;29;20547;-82
2023/05/23 04:11:45;;;;;;;17.33;14.57;;;;;;;13.80;100.00;100671.63;4916597;29;20066;-80
2023/05/23 04:14:13;;;;;;;16.90;14.43;;;;;;;13.81;100.00;100673.34;4932477;29;20050;-80
2023/05/23 04:16:40;;;;;;;18.92;14.38;;;;;;;13.80;100.00;100680.38;4915757;29;20118;-83
2023/05/23 04:19:07;;;;;;;17.35;12.82;;;;;;;13.79;100.00;100680.41;4916459;29;20055;-80
2023/05/23 04:21:34;;;;;;;15.10;12.57;;;;;;;13.86;100.00;100671.50;4915528;29;20121;-79
2023/05/23 04:24:02;;;;;;;15.45;11.05;;;;;;;13.87;100.00;100679.34;4896863;29;20468;-79
2023/05/23 04:26:31;;;;;;;15.60;12.25;;;;;;;13.83;100.00;100679.44;4881854;29;20055;-81
2023/05/23 04:28:59;;;;;;;13.82;10.75;;;;;;;13.90;100.00;100678.41;4902611;29;20050;-81
2023/05/23 04:31:25;;;;;;;15.10;11.88;;;;;;;13.80;100.00;100680.38;4897840;29;20052;-81
2023/05/23 04:33:52;;;;;;;14.68;11.63;;;;;;;13.83;100.00;100680.31;4898169;29;20047;-81
2023/05/23 04:36:18;;;;;;;13.88;10.85;;;;;;;13.90;100.00;100674.00;4909358;29;20040;-83
2023/05/23 04:38:45;;;;;;;15.18;10.30;;;;;;;13.94;100.00;100671.31;4892733;29;20054;-84
2023/05/23 04:41:11;;;;;;;19.35;11.88;;;;;;;13.93;100.00;100674.84;4886177;29;20055;-80
2023/05/23 04:43:41;;;;;;;13.68;10.50;;;;;;;13.95;100.00;100675.66;4911299;29;20071;-80
2023/05/23 04:46:09;;;;;;;12.57;9.55;;;;;;;13.98;100.00;100686.13;4882365;29;20043;-82
2023/05/23 04:48:37;;;;;;;11.18;9.30;;;;;;;13.99;100.00;100685.25;4912803;29;20112;-79
2023/05/23 04:51:06;;;;;;;11.90;10.23;;;;;;;13.97;100.00;100685.25;4881487;29;20048;-81
2023/05/23 04:53:33;;;;;;;11.82;9.77;;;;;;;13.85;100.00;100681.13;4897056;29;20047;-80
2023/05/23 04:56:00;;;;;;;12.90;9.43;;;;;;;13.82;100.00;100685.59;4896786;29;20440;-81
2023/05/23 04:58:26;;;;;;;15.38;11.45;;;;;;;13.79;100.00;100690.94;4897204;29;20163;-81
2023/05/23 05:00:53;;;;;;;14.43;10.30;;;;;;;13.76;100.00;100680.50;4899477;29;20507;-83
2023/05/23 05:03:23;;;;;;;13.60;9.82;;;;;;;13.78;100.00;100682.19;4913958;29;20040;-79
2023/05/23 05:05:50;;;;;;;11.45;9.07;;;;;;;13.73;100.00;100686.69;4898071;29;20036;-79
2023/05/23 05:08:18;;;;;;;11.88;8.95;;;;;;;13.69;100.00;100688.50;4912940;29;20087;-80
2023/05/23 05:10:45;;;;;;;12.88;9.77;;;;;;;13.69;100.00;100685.03;4908737;29;20123;-83
2023/05/23 05:13:11;;;;;;;14.20;10.38;;;;;;;13.73;100.00;100684.03;4897510;29;20044;-80
2023/05/23 05:15:38;;;;;;;14.00;10.73;;;;;;;13.75;100.00;100684.88;4914244;29;20055;-80
2023/05/23 05:18:04;;;;;;;12.40;9.57;;;;;;;13.78;100.00;100681.31;4897099;29;20054;-80
2023/05/23 05:20:31;;;;;;;11.93;8.85;;;;;;;13.77;100.00;100685.72;4905342;29;20048;-88
2023/05/23 05:22:58;;;;;;;11.80;8.68;;;;;;;13.70;100.00;100684.09;4919347;29;20090;-79
2023/05/23 05:25:26;;;;;;;10.05;8.93;;;;;;;13.60;100.00;100686.06;4900903;29;20039;-79
2023/05/23 05:27:52;;;;;;;11.48;8.73;;;;;;;13.61;100.00;100692.19;4934518;29;20098;-80
2023/05/23 05:30:19;;;;;;;12.40;9.55;;;;;;;13.56;100.00;100685.25;4916307;29;20062;-83
2023/05/23 05:32:48;;;;;;;12.13;9.30;;;;;;;13.53;100.00;100690.59;4920067;29;20102;-81
2023/05/23 05:35:14;;;;;;;13.60;10.23;;;;;;;13.39;100.00;100690.88;4923813;29;20118;-81
2023/05/23 05:37:41;;;;;;;13.85;9.70;;;;;;;13.34;100.00;100690.06;4918059;29;20107;-80
2023/05/23 05:40:08;;;;;;;14.35;9.65;;;;;;;13.32;100.00;100689.22;4931888;29;20047;-81
2023/05/23 05:42:35;;;;;;;12.13;9.63;;;;;;;13.32;100.00;100699.72;4921406;29;20071;-80
2023/05/23 05:45:01;;;;;;;12.45;9.60;;;;;;;13.30;100.00;100690.16;4919502;29;20050;-80
2023/05/23 05:47:28;;;;;;;15.15;9.95;;;;;;;13.34;100.00;100690.06;4922273;29;20383;-79
2023/05/23 05:49:56;;;;;;;10.95;8.23;;;;;;;13.34;100.00;100694.47;4898979;29;20056;-80
2023/05/23 05:52:22;;;;;;;11.18;9.00;;;;;;;13.29;100.00;100688.44;4922089;29;20363;-80
2023/05/23 05:54:49;;;;;;;13.48;9.32;;;;;;;13.33;100.00;100692.72;4922617;29;20055;-79
2023/05/23 05:57:15;;;;;;;10.35;7.93;;;;;;;13.31;100.00;100698.03;4911503;29;20048;-86
2023/05/23 05:59:42;;;;;;;10.35;8.73;;;;;;;13.28;100.00;100692.81;4920154;29;20126;-80
2023/05/23 06:02:08;;;;;;;11.55;9.40;;;;;;;13.23;100.00;100695.53;4900945;29;20487;-79
2023/05/23 06:04:35;;;;;;;10.35;8.82;;;;;;;13.26;100.00;100701.63;4918474;29;20138;-81
2023/05/23 06:07:02;;;;;;;12.55;9.90;;;;;;;13.21;100.00;100699.94;4905088;29;20060;-79
2023/05/23 06:09:28;;;;;;;15.98;10.70;;;;;;;13.21;100.00;100704.34;4925802;29;20050;-83
2023/05/23 06:11:55;;;;;;;13.55;10.93;;;;;;;13.22;100.00;100704.31;4919259;29;20073;-81
2023/05/23 06:14:21;;;;;;;15.68;11.60;;;;;;;13.26;100.00;100701.63;4920295;29;20044;-80
2023/05/23 06:16:48;;;;;;;14.82;11.60;;;;;;;13.27;100.00;100693.72;4919934;29;20088;-80
2023/05/23 06:19:14;;;;;;;14.20;11.70;;;;;;;13.28;100.00;100691.94;4919198;29;20471;-83
2023/05/23 06:21:46;;;;;;;13.60;10.98;;;;;;;13.31;100.00;100694.50;4922501;29;20380;-79
2023/05/23 06:24:13;;;;;;;13.98;11.65;;;;;;;13.34;100.00;100695.31;4903471;29;20051;-82
2023/05/23 06:26:39;;;;;;;13.55;11.70;;;;;;;13.34;100.00;100694.47;4926661;29;20096;-82
2023/05/23 06:29:06;;;;;;;14.93;11.55;;;;;;;13.33;100.00;100700.63;4919678;29;20044;-80
2023/05/23 06:31:32;;;;;;;13.68;11.65;;;;;;;13.31;100.00;100699.75;4930338;29;20055;-81
2023/05/23 06:33:59;;;;;;;15.20;11.25;;;;;;;13.29;100.00;100707.69;4922150;29;20046;-79
2023/05/23 06:36:26;;;;;;;9.95;8.95;;;;;;;13.33;100.00;100701.47;4932582;29;20071;-81
2023/05/23 06:38:53;;;;;;;12.93;9.88;;;;;;;13.29;100.00;100710.31;4926335;29;20051;-79
2023/05/23 06:41:19;;;;;;;9.43;8.35;;;;;;;13.26;100.00;100698.97;4928468;29;20044;-82
2023/05/23 06:43:46;;;;;;;10.93;9.50;;;;;;;13.30;100.00;100708.56;4920814;29;20039;-80
2023/05/23 06:46:13;;;;;;;10.65;8.32;;;;;;;13.30;100.00;100708.56;4928889;29;20445;-83
2023/05/23 06:48:39;;;;;;;9.88;8.82;;;;;;;13.28;100.00;100723.50;4938716;29;20043;-79
2023/05/23 06:51:06;;;;;;;9.65;8.43;;;;;;;13.26;100.00;100720.91;4923019;29;20040;-83
2023/05/23 06:53:32;;;;;;;11.77;8.48;;;;;;;13.28;100.00;100726.97;4916840;29;20452;-80
2023/05/23 06:55:59;;;;;;;11.70;8.80;;;;;;;13.32;100.00;100727.78;4920967;29;20039;-80
2023/05/23 06:58:25;;;;;;;11.30;8.63;;;;;;;13.30;100.00;100725.19;4903278;29;20425;-84
2023/05/23 07:00:52;;;;;;;13.00;9.68;;;;;;;13.29;100.00;100725.22;4921195;29;20040;-80
2023/05/23 07:03:19;;;;;;;10.57;7.93;;;;;;;13.25;100.00;100727.03;4919306;29;20039;-80
2023/05/23 07:05:45;;;;;;;9.52;7.53;;;;;;;13.26;100.00;100741.03;4919723;29;20043;-80
2023/05/23 07:08:12;;;;;;;9.00;7.63;;;;;;;13.28;100.00;100736.63;4921274;29;20040;-82
2023/05/23 07:10:40;;;;;;;8.57;6.65;;;;;;;13.24;100.00;100739.34;4921866;29;20054;-83
2023/05/23 07:13:06;;;;;;;8.32;7.47;;;;;;;13.23;100.00;100739.34;4929877;29;20127;-80
2023/05/23 07:15:33;;;;;;;9.50;7.63;;;;;;;13.23;100.00;100741.97;4924740;29;20044;-81
2023/05/23 07:17:59;;;;;;;9.60;7.35;;;;;;;13.24;100.00;100741.09;4921379;29;20039;-82
2023/05/23 07:20:26;;;;;;;9.98;7.05;;;;;;;13.23;100.00;100742.84;4937607;29;20062;-82
2023/05/23 07:22:52;;;;;;;8.77;6.82;;;;;;;13.22;100.00;100741.13;4934761;29;20054;-79
2023/05/23 07:25:19;;;;;;;10.05;7.13;;;;;;;13.21;100.00;100738.53;4918175;29;20047;-79
2023/05/23 07:27:45;;;;;;;9.35;8.00;;;;;;;13.20;100.00;100747.28;4908834;29;20055;-80
2023/05/23 07:30:12;;;;;;;8.15;6.22;;;;;;;13.21;100.00;100744.63;4905053;29;20501;-80
2023/05/23 07:32:38;;;;;;;9.23;6.65;;;;;;;13.18;100.00;100757.84;4904581;29;20060;-81
2023/05/23 07:35:05;;;;;;;6.68;5.90;;;;;;;13.19;100.00;100750.81;4910930;29;20040;-83
2023/05/23 07:37:32;;;;;;;6.22;5.68;;;;;;;13.14;100.00;100760.53;4916492;29;20039;-81
2023/05/23 07:39:58;;;;;;;5.88;4.63;;;;;;;13.12;100.00;100765.84;4916676;29;20049;-83
2023/05/23 07:42:25;;;;;;;6.72;5.32;;;;;;;13.09;100.00;100758.00;4917023;29;20478;-84
2023/05/23 07:44:51;;;;;;;6.25;5.25;;;;;;;13.06;100.00;100763.31;4922258;29;20082;-80
2023/05/23 07:47:18;;;;;;;6.03;4.82;;;;;;;12.94;100.00;100772.25;4902476;29;20542;-80
2023/05/23 07:49:46;;;;;;;7.15;6.00;;;;;;;12.90;100.00;100771.44;4933793;29;20048;-80
2023/05/23 07:52:12;;;;;;;7.20;5.30;;;;;;;12.88;100.00;100769.72;4921136;29;20151;-79
2023/05/23 07:54:39;;;;;;;6.32;5.70;;;;;;;12.82;100.00;100775.13;4919365;29;20040;-80
2023/05/23 07:57:07;;;;;;;8.05;6.30;;;;;;;12.75;100.00;100774.34;4914411;29;20039;-86
2023/05/23 07:59:34;;;;;;;6.75;6.07;;;;;;;12.72;100.00;100777.88;4932902;29;20418;-83
2023/05/23 08:02:01;;;;;;;8.30;7.00;;;;;;;12.70;100.00;100784.91;4910312;29;20147;-80
2023/05/23 08:04:29;;;;;;;7.70;6.95;;;;;;;12.65;100.00;100792.00;4918882;29;20044;-83
2023/05/23 08:06:56;;;;;;;8.43;7.55;;;;;;;12.63;100.00;100793.75;4917614;29;20363;-82
2023/05/23 08:09:23;;;;;;;9.05;7.50;;;;;;;12.58;100.00;100795.63;4917199;29;20048;-91
2023/05/23 08:11:50;;;;;;;12.57;8.57;;;;;;;12.57;100.00;100804.38;4916904;29;20044;-83
2023/05/23 08:14:16;;;;;;;14.10;8.25;;;;;;;12.54;100.00;100815.81;4901389;29;20043;-85
2023/05/23 08:16:42;;;;;;;15.23;9.18;;;;;;;12.49;100.00;100815.00;4899442;29;20047;-83
2023/05/23 08:19:09;;;;;;;13.13;9.15;;;;;;;12.45;100.00;100807.16;4918327;29;20387;-80
2023/05/23 08:21:38;;;;;;;16.00;9.18;;;;;;;12.38;100.00;100819.53;4916590;29;20526;-82
2023/05/23 08:24:05;;;;;;;11.60;8.05;;;;;;;12.32;100.00;100820.47;4917046;29;20035;-81
2023/05/23 08:26:33;;;;;;;13.85;8.93;;;;;;;12.24;100.00;100823.22;4915093;29;20105;-81
2023/05/23 08:29:02;;;;;;;12.10;9.75;;;;;;;12.21;100.00;100825.84;4906821;29;20047;-81
2023/05/23 08:31:30;;;;;;;14.93;9.73;;;;;;;12.22;100.00;100834.63;4917061;29;20047;-81
2023/05/23 08:33:56;;;;;;;15.98;10.00;;;;;;;12.22;100.00;100821.50;4919787;29;20069;-80
2023/05/23 08:36:23;;;;;;;16.50;9.68;;;;;;;12.16;100.00;100835.56;4916300;29;20056;-80
2023/05/23 08:38:51;;;;;;;16.25;8.48;;;;;;;12.14;100.00;100842.59;4917855;29;20040;-82
2023/05/23 08:41:22;;;;;;;14.60;9.50;;;;;;;12.16;100.00;100839.94;4926591;29;20043;-82
2023/05/23 08:43:49;;;;;;;13.57;7.80;;;;;;;12.19;100.00;100845.13;4918577;29;20043;-80
2023/05/23 08:46:16;;;;;;;16.60;8.77;;;;;;;12.19;100.00;100850.38;4909290;29;20047;-85
2023/05/23 08:48:44;;;;;;;14.23;8.38;;;;;;;12.14;100.00;100858.34;4937731;29;20403;-82
2023/05/23 08:51:13;;;;;;;13.43;7.35;;;;;;;12.11;100.00;100858.38;4915715;29;20051;-81
2023/05/23 08:53:46;;;;;;;10.05;7.28;;;;;;;12.08;100.00;100858.41;4917851;29;20399;-81
2023/05/23 08:56:13;;;;;;;10.73;7.10;;;;;;;12.08;100.00;100851.41;4917896;29;20050;-81
2023/05/23 08:58:42;;;;;;;12.15;7.70;;;;;;;12.10;100.00;100863.63;4916029;29;20066;-80
2023/05/23 09:01:12;;;;;;;14.57;8.52;;;;;;;12.05;100.00;100868.94;4921280;29;20386;-81
2023/05/23 09:03:41;;;;;;;10.30;6.68;;;;;;;11.99;100.00;100875.09;4896785;29;20115;-80
2023/05/23 09:06:08;;;;;;;15.35;8.73;;;;;;;11.94;100.00;100881.25;4903077;29;20432;-80
2023/05/23 09:08:36;;;;;;;20.52;9.55;;;;;;;11.90;100.00;100886.56;4915587;29;20048;-80
2023/05/23 09:11:04;;;;;;;18.23;9.70;;;;;;;11.91;100.00;100892.66;4932658;29;20056;-81
2023/05/23 09:13:32;;;;;;;23.15;11.20;;;;;;;11.85;100.00;100893.59;4917595;29;20075;-80
2023/05/23 09:15:59;;;;;;;18.38;10.63;;;;;;;11.81;100.00;100904.13;4923206;29;20059;-83
2023/05/23 09:18:26;;;;;;;16.00;10.52;;;;;;;11.78;100.00;100912.91;4936768;29;20487;-80
2023/05/23 09:20:53;;;;;;;19.98;10.85;;;;;;;11.79;100.00;100914.66;4902094;29;20057;-85
2023/05/23 09:23:20;;;;;;;14.02;10.50;;;;;;;11.83;100.00;100912.88;4902405;29;20047;-80
2023/05/23 09:25:48;;;;;;;17.38;10.07;;;;;;;11.90;100.00;100923.28;4937537;29;20087;-81
2023/05/23 09:28:14;;;;;;;17.65;10.00;;;;;;;11.94;100.00;100924.09;4918114;29;20042;-81
2023/05/23 09:30:41;;;;;;;14.75;8.80;;;;;;;11.94;100.00;100926.72;4928284;29;20059;-83
2023/05/23 09:33:08;;;;;;;15.43;10.52;;;;;;;11.90;100.00;100930.25;4917038;29;20039;-83
2023/05/23 09:35:34;;;;;;;14.07;9.32;;;;;;;11.88;100.00;100929.44;4925444;29;20047;-81
2023/05/23 09:38:00;;;;;;;14.38;8.35;;;;;;;11.85;100.00;100937.31;4922022;29;20491;-80
2023/05/23 09:40:31;;;;;;;13.75;7.80;;;;;;;11.84;100.00;100935.59;4932151;29;20122;-80
2023/05/23 09:43:04;;;;;;;9.70;7.93;;;;;;;11.82;100.00;100945.22;4917728;29;20127;-81
2023/05/23 09:45:33;;;;;;;9.48;6.20;;;;;;;11.84;100.00;100946.09;4913477;29;21411;-80
2023/05/23 09:48:00;;;;;;;10.57;7.45;;;;;;;11.87;100.00;100957.41;4933804;29;20039;-85
2023/05/23 09:50:33;;;;;;;10.25;6.75;;;;;;;11.89;100.00;100952.16;4917780;29;20055;-82
2023/05/23 09:53:01;;;;;;;11.40;7.18;;;;;;;11.85;100.00;100956.56;4902149;29;20040;-85
2023/05/23 09:55:27;;;;;;;15.60;7.03;;;;;;;11.84;100.00;100961.81;4895250;29;20043;-81
2023/05/23 09:57:55;;;;;;;13.00;7.32;;;;;;;11.83;100.00;100971.44;4918271;29;20047;-79
2023/05/23 10:00:24;;;;;;;10.50;6.95;;;;;;;11.81;100.00;100962.72;4915001;29;20473;-81
2023/05/23 10:03:13;;;;;;;10.00;6.45;;;;;;;11.79;100.00;100967.09;4901436;29;20047;-81
2023/05/23 10:05:47;;;;;;;8.43;5.38;;;;;;;11.84;100.00;100975.81;4920607;29;20078;-81
2023/05/23 10:08:16;;;;;;;7.53;4.53;;;;;;;11.87;100.00;100983.63;4918292;29;20040;-82
2023/05/23 10:11:22;;;;;;;7.47;5.15;;;;;;;11.90;100.00;100986.25;4900256;29;20428;-82
2023/05/23 10:13:50;;;;;;;9.52;5.13;;;;;;;11.97;100.00;100984.47;4918010;29;20044;-82
2023/05/23 10:16:46;;;;;;;7.25;5.25;;;;;;;12.00;100.00;100999.31;4905205;29;20047;-79
2023/05/23 10:19:48;;;;;;;5.13;4.32;;;;;;;11.95;100.00;100995.81;4936768;29;20097;-82
2023/05/23 10:22:16;;;;;;;9.50;5.57;;;;;;;11.92;100.00;100997.56;4925904;29;20054;-82
2023/05/23 10:24:45;;;;;;;6.40;5.68;;;;;;;11.96;100.00;100993.22;4921521;29;20035;-81
2023/05/23 10:27:11;;;;;;;9.13;6.57;;;;;;;12.01;100.00;101006.31;4918537;29;20119;-81
2023/05/23 10:29:38;;;;;;;9.07;5.35;;;;;;;12.00;100.00;101009.81;4918500;29;20052;-84
2023/05/23 10:32:06;;;;;;;7.20;5.60;;;;;;;12.04;100.00;101009.75;4920155;29;20078;-79
2023/05/23 10:34:39;;;;;;;6.95;4.57;;;;;;;12.05;100.00;101014.13;4929804;29;20052;-80
2023/05/23 10:37:07;;;;;;;9.10;5.28;;;;;;;12.06;100.00;101009.75;4937183;29;20122;-86
2023/05/23 10:39:53;;;;;;;9.45;5.68;;;;;;;12.04;100.00;101025.47;4916297;29;20041;-82
2023/05/23 10:42:49;;;;;;;15.55;6.68;;;;;;;12.03;100.00;101028.13;4918717;29;20526;-84
2023/05/23 10:45:21;;;;;;;9.45;5.82;;;;;;;11.94;100.00;101039.53;4917069;29;20476;-82
2023/05/23 10:47:51;;;;;;;11.35;6.80;;;;;;;11.91;100.00;101039.56;4904851;29;20431;-83
2023/05/23 10:50:33;;;;;;;17.73;7.47;;;;;;;11.85;100.00;101042.22;4933892;29;20479;-82
2023/05/23 10:53:02;;;;;;;13.63;8.70;;;;;;;11.79;100.00;101044.94;4936466;29;20052;-82
2023/05/23 10:55:33;;;;;;;14.48;8.98;;;;;;;11.68;100.00;101048.50;4934864;29;20122;-80
2023/05/23 10:58:20;;;;;;;13.65;9.10;;;;;;;11.64;100.00;101061.63;4934960;29;20075;-82
2023/05/23 11:00:58;;;;;;;14.55;9.30;;;;;;;11.58;100.00;101065.19;4915533;29;20046;-81
2023/05/23 11:03:59;;;;;;;22.00;10.63;;;;;;;11.51;100.00;101066.97;4901162;29;20052;-81
2023/05/23 11:06:45;;;;;;;17.20;8.77;;;;;;;11.49;100.00;101066.09;4926134;29;20050;-81
2023/05/23 11:09:18;;;;;;;21.02;8.57;;;;;;;11.46;100.00;101066.13;4917417;29;20051;-82
2023/05/23 11:11:50;;;;;;;23.17;9.63;;;;;;;11.50;100.00;101074.81;4931029;29;20063;-81
2023/05/23 11:14:18;;;;;;;17.50;9.18;;;;;;;11.52;100.00;101073.94;4932310;29;20123;-85